createdAt,value
2022-10-16T06:31:16.712Z,73.38
2022-10-16T06:39:41.237Z,74.57
2022-10-16T06:42:10.760Z,75.31
2022-10-16T06:44:41.959Z,75.15
2022-10-16T10:23:04.972Z,64.96
2022-10-16T10:25:55.500Z,64.98
2022-10-16T10:29:05.891Z,65.40
2022-10-16T10:31:51.917Z,65.74
2022-10-16T10:34:31.678Z,65.44
2022-10-16T10:37:39.698Z,65.83
2022-10-16T10:40:51.100Z,66.02
2022-10-16T10:50:15.827Z,66.59
2022-10-16T10:53:03.121Z,66.57
2022-10-16T10:55:45.333Z,66.31
2022-10-16T10:58:53.153Z,66.94
2022-10-16T11:02:17.404Z,67.15
2022-10-16T11:05:15.339Z,66.73
2022-10-16T11:32:24.469Z,68.30
2022-10-16T11:35:14.266Z,67.92
2022-10-16T11:37:52.295Z,67.63
2022-10-16T11:43:57.077Z,68.08
2022-10-16T12:22:32.924Z,67.57
2022-10-16T12:28:00.728Z,67.29
2022-10-16T12:33:37.526Z,67.16
2022-10-16T12:36:32.366Z,67.08
2022-10-16T12:39:01.060Z,67.14
2022-10-16T13:00:15.889Z,66.62
2022-10-16T13:03:35.780Z,67.06
2022-10-16T13:06:29.236Z,66.43
2022-10-16T13:12:01.210Z,66.64
2022-10-16T13:14:35.441Z,66.10
2022-10-16T13:17:32.048Z,65.65
2022-10-16T13:20:59.125Z,65.91
2022-10-16T13:24:30.520Z,65.77
2022-10-16T13:27:56.850Z,66.42
2022-10-16T13:37:04.320Z,66.68
2022-10-16T13:39:35.960Z,65.87
2022-10-16T13:42:27.776Z,66.00
2022-10-16T13:44:59.553Z,65.92
2022-10-16T13:47:31.738Z,65.94
2022-10-16T13:50:07.800Z,64.62
2022-10-16T13:55:31.149Z,63.71
2022-10-16T13:58:16.593Z,63.39
2022-10-16T14:01:02.581Z,62.93
2022-10-16T14:03:34.795Z,63.26
2022-10-16T14:06:07.347Z,62.64
2022-10-16T14:08:36.939Z,61.88
2022-10-16T14:11:06.470Z,61.57
2022-10-16T14:13:59.649Z,61.88
2022-10-16T14:16:47.249Z,61.70
2022-10-16T14:19:34.122Z,61.59
2022-10-16T14:22:10.565Z,61.74
2022-10-16T14:27:39.248Z,61.58
2022-10-16T14:30:09.693Z,61.38
2022-10-16T14:32:44.730Z,61.17
2022-10-16T14:35:42.165Z,61.55
2022-10-16T14:38:29.334Z,61.85
2022-10-16T14:41:02.755Z,61.86
2022-10-16T14:43:52.526Z,61.70
2022-10-16T14:49:31.197Z,62.31
2022-10-16T14:52:02.342Z,62.41
2022-10-16T14:54:31.129Z,62.07
2022-10-16T14:57:00.502Z,61.56
2022-10-16T14:59:37.224Z,61.55
2022-10-16T15:05:28.213Z,62.21
2022-10-16T15:07:59.735Z,62.50
2022-10-16T15:10:33.458Z,62.30
2022-10-16T15:13:13.477Z,62.43
2022-10-16T15:15:47.622Z,62.29
2022-10-16T15:18:32.340Z,62.15
2022-10-16T15:21:14.204Z,62.62
2022-10-16T15:26:34.808Z,62.99
2022-10-16T15:29:02.501Z,63.11
2022-10-16T15:31:41.830Z,63.12
2022-10-16T15:40:08.289Z,63.85
2022-10-16T15:42:37.068Z,63.87
2022-10-16T15:45:07.286Z,64.35
2022-10-16T15:47:35.494Z,64.02
2022-10-16T16:06:09.112Z,65.13
2022-10-16T16:20:51.086Z,65.73
2022-10-16T16:36:42.968Z,65.41
2022-10-16T16:54:42.669Z,65.14
